sensor_id;sensor_type;location;lat;lon;timestamp;P1;durP1;ratioP1;P2;durP2;ratioP2
21120;SDS011;12519;43.318;21.898;2022-12-18T00:00:46;27.0;;;25.0;;
21120;SDS011;12519;43.318;21.898;2022-12-18T00:05:23;27.0;;;25.0;;
21120;SDS011;12519;43.318;21.898;2022-12-18T00:09:59;27.0;;;25.0;;
21120;SDS011;12519;43.318;21.898;2022-12-18T00:14:35;30.0;;;26.0;;
21120;SDS011;12519;43.318;21.898;2022-12-18T00:19:13;30.0;;;26.0;;
21120;SDS011;12519;43.318;21.898;2022-12-18T00:23:51;34.0;;;27.0;;
21120;SDS011;12519;43.318;21.898;2022-12-18T00:28:28;34.0;;;27.0;;
21120;SDS011;12519;43.318;21.898;2022-12-18T00:33:04;28.0;;;24.0;;
21120;SDS011;12519;43.318;21.898;2022-12-18T00:37:41;28.0;;;24.0;;
21120;SDS011;12519;43.318;21.898;2022-12-18T00:42:17;23.0;;;20.0;;
21120;SDS011;12519;43.318;21.898;2022-12-18T00:46:53;23.0;;;20.0;;
21120;SDS011;12519;43.318;21.898;2022-12-18T00:51:30;24.0;;;21.0;;
21120;SDS011;12519;43.318;21.898;2022-12-18T00:56:07;24.0;;;21.0;;
21120;SDS011;12519;43.318;21.898;2022-12-18T01:00:43;24.0;;;21.0;;
21120;SDS011;12519;43.318;21.898;2022-12-18T01:05:20;24.0;;;22.0;;
21120;SDS011;12519;43.318;21.898;2022-12-18T01:09:57;24.0;;;22.0;;
21120;SDS011;12519;43.318;21.898;2022-12-18T01:14:33;26.0;;;22.0;;
21120;SDS011;12519;43.318;21.898;2022-12-18T01:19:09;26.0;;;22.0;;
21120;SDS011;12519;43.318;21.898;2022-12-18T01:23:46;28.0;;;21.0;;
21120;SDS011;12519;43.318;21.898;2022-12-18T01:28:27;28.0;;;21.0;;
21120;SDS011;12519;43.318;21.898;2022-12-18T01:33:05;26.0;;;20.0;;
21120;SDS011;12519;43.318;21.898;2022-12-18T01:37:41;26.0;;;20.0;;
21120;SDS011;12519;43.318;21.898;2022-12-18T01:42:17;24.0;;;20.0;;
21120;SDS011;12519;43.318;21.898;2022-12-18T01:46:54;24.0;;;20.0;;
21120;SDS011;12519;43.318;21.898;2022-12-18T01:51:30;27.0;;;20.0;;
21120;SDS011;12519;43.318;21.898;2022-12-18T01:56:10;27.0;;;20.0;;
21120;SDS011;12519;43.318;21.898;2022-12-18T02:00:49;27.0;;;20.0;;
21120;SDS011;12519;43.318;21.898;2022-12-18T02:05:43;30.0;;;21.0;;
21120;SDS011;12519;43.318;21.898;2022-12-18T02:10:33;30.0;;;21.0;;
21120;SDS011;12519;43.318;21.898;2022-12-18T02:15:38;28.0;;;20.0;;
21120;SDS011;12519;43.318;21.898;2022-12-18T02:20:42;28.0;;;20.0;;
21120;SDS011;12519;43.318;21.898;2022-12-18T02:26:00;25.0;;;20.0;;
21120;SDS011;12519;43.318;21.898;2022-12-18T02:30:58;25.0;;;20.0;;
21120;SDS011;12519;43.318;21.898;2022-12-18T02:35:45;25.0;;;20.0;;
21120;SDS011;12519;43.318;21.898;2022-12-18T02:40:28;25.0;;;20.0;;
21120;SDS011;12519;43.318;21.898;2022-12-18T02:45:07;25.0;;;21.0;;
21120;SDS011;12519;43.318;21.898;2022-12-18T02:50:04;25.0;;;21.0;;
21120;SDS011;12519;43.318;21.898;2022-12-18T02:55:03;26.0;;;20.0;;
21120;SDS011;12519;43.318;21.898;2022-12-18T03:00:03;26.0;;;20.0;;
21120;SDS011;12519;43.318;21.898;2022-12-18T03:04:51;27.0;;;20.0;;
21120;SDS011;12519;43.318;21.898;2022-12-18T03:09:43;27.0;;;20.0;;
21120;SDS011;12519;43.318;21.898;2022-12-18T03:14:29;28.0;;;22.0;;
21120;SDS011;12519;43.318;21.898;2022-12-18T03:19:13;28.0;;;22.0;;
21120;SDS011;12519;43.318;21.898;2022-12-18T03:23:57;29.0;;;23.0;;
21120;SDS011;12519;43.318;21.898;2022-12-18T03:28:44;29.0;;;23.0;;
21120;SDS011;12519;43.318;21.898;2022-12-18T03:33:34;30.0;;;21.0;;
21120;SDS011;12519;43.318;21.898;2022-12-18T03:38:22;30.0;;;21.0;;
21120;SDS011;12519;43.318;21.898;2022-12-18T03:43:08;32.0;;;19.0;;
21120;SDS011;12519;43.318;21.898;2022-12-18T03:48:16;32.0;;;19.0;;
21120;SDS011;12519;43.318;21.898;2022-12-18T03:53:33;27.0;;;19.0;;
21120;SDS011;12519;43.318;21.898;2022-12-18T03:58:32;27.0;;;19.0;;
21120;SDS011;12519;43.318;21.898;2022-12-18T04:03:20;22.0;;;19.0;;
21120;SDS011;12519;43.318;21.898;2022-12-18T04:08:00;22.0;;;19.0;;
21120;SDS011;12519;43.318;21.898;2022-12-18T04:12:38;28.0;;;20.0;;
21120;SDS011;12519;43.318;21.898;2022-12-18T04:17:15;28.0;;;20.0;;
21120;SDS011;12519;43.318;21.898;2022-12-18T04:21:51;35.0;;;21.0;;
21120;SDS011;12519;43.318;21.898;2022-12-18T04:26:27;35.0;;;21.0;;
21120;SDS011;12519;43.318;21.898;2022-12-18T04:31:04;35.0;;;21.0;;
21120;SDS011;12519;43.318;21.898;2022-12-18T04:35:41;32.0;;;21.0;;
21120;SDS011;12519;43.318;21.898;2022-12-18T04:40:17;32.0;;;21.0;;
21120;SDS011;12519;43.318;21.898;2022-12-18T04:44:54;28.0;;;21.0;;
21120;SDS011;12519;43.318;21.898;2022-12-18T04:49:30;28.0;;;21.0;;
21120;SDS011;12519;43.318;21.898;2022-12-18T04:54:06;24.0;;;18.0;;
21120;SDS011;12519;43.318;21.898;2022-12-18T04:58:44;24.0;;;18.0;;
21120;SDS011;12519;43.318;21.898;2022-12-18T05:03:21;19.0;;;16.0;;
21120;SDS011;12519;43.318;21.898;2022-12-18T05:07:57;19.0;;;16.0;;
21120;SDS011;12519;43.318;21.898;2022-12-18T05:12:33;22.0;;;18.0;;
21120;SDS011;12519;43.318;21.898;2022-12-18T05:17:10;22.0;;;18.0;;
21120;SDS011;12519;43.318;21.898;2022-12-18T05:21:46;24.0;;;19.0;;
21120;SDS011;12519;43.318;21.898;2022-12-18T05:26:22;24.0;;;19.0;;
21120;SDS011;12519;43.318;21.898;2022-12-18T05:31:02;24.0;;;19.0;;
21120;SDS011;12519;43.318;21.898;2022-12-18T05:35:39;26.0;;;20.0;;
21120;SDS011;12519;43.318;21.898;2022-12-18T05:40:16;26.0;;;20.0;;
21120;SDS011;12519;43.318;21.898;2022-12-18T05:44:52;27.0;;;22.0;;
21120;SDS011;12519;43.318;21.898;2022-12-18T05:49:28;27.0;;;22.0;;
21120;SDS011;12519;43.318;21.898;2022-12-18T05:54:04;26.0;;;21.0;;
21120;SDS011;12519;43.318;21.898;2022-12-18T05:58:41;26.0;;;21.0;;
21120;SDS011;12519;43.318;21.898;2022-12-18T06:03:18;24.0;;;20.0;;
21120;SDS011;12519;43.318;21.898;2022-12-18T06:07:54;24.0;;;20.0;;
21120;SDS011;12519;43.318;21.898;2022-12-18T06:12:31;24.0;;;20.0;;
21120;SDS011;12519;43.318;21.898;2022-12-18T06:17:07;24.0;;;20.0;;
21120;SDS011;12519;43.318;21.898;2022-12-18T06:21:44;23.0;;;19.0;;
21120;SDS011;12519;43.318;21.898;2022-12-18T06:26:21;23.0;;;19.0;;
21120;SDS011;12519;43.318;21.898;2022-12-18T06:30:59;23.0;;;19.0;;
21120;SDS011;12519;43.318;21.898;2022-12-18T06:35:36;28.0;;;20.0;;
21120;SDS011;12519;43.318;21.898;2022-12-18T06:40:12;28.0;;;20.0;;
21120;SDS011;12519;43.318;21.898;2022-12-18T06:44:48;32.0;;;20.0;;
21120;SDS011;12519;43.318;21.898;2022-12-18T06:49:25;32.0;;;20.0;;
21120;SDS011;12519;43.318;21.898;2022-12-18T06:54:01;32.0;;;20.0;;
21120;SDS011;12519;43.318;21.898;2022-12-18T06:58:39;32.0;;;20.0;;
21120;SDS011;12519;43.318;21.898;2022-12-18T07:03:15;31.0;;;20.0;;
21120;SDS011;12519;43.318;21.898;2022-12-18T07:07:51;31.0;;;20.0;;
21120;SDS011;12519;43.318;21.898;2022-12-18T07:12:27;32.0;;;20.0;;
21120;SDS011;12519;43.318;21.898;2022-12-18T07:17:03;32.0;;;20.0;;
21120;SDS011;12519;43.318;21.898;2022-12-18T07:21:39;33.0;;;21.0;;
21120;SDS011;12519;43.318;21.898;2022-12-18T07:26:19;33.0;;;21.0;;
21120;SDS011;12519;43.318;21.898;2022-12-18T07:30:58;33.0;;;21.0;;
21120;SDS011;12519;43.318;21.898;2022-12-18T07:35:39;31.0;;;22.0;;
21120;SDS011;12519;43.318;21.898;2022-12-18T07:40:15;31.0;;;22.0;;
21120;SDS011;12519;43.318;21.898;2022-12-18T07:44:52;29.0;;;23.0;;
21120;SDS011;12519;43.318;21.898;2022-12-18T07:49:28;29.0;;;23.0;;
21120;SDS011;12519;43.318;21.898;2022-12-18T07:54:05;26.0;;;22.0;;
21120;SDS011;12519;43.318;21.898;2022-12-18T07:58:40;26.0;;;22.0;;
21120;SDS011;12519;43.318;21.898;2022-12-18T08:03:16;23.0;;;20.0;;
21120;SDS011;12519;43.318;21.898;2022-12-18T08:07:54;23.0;;;20.0;;
21120;SDS011;12519;43.318;21.898;2022-12-18T08:12:30;25.0;;;20.0;;
21120;SDS011;12519;43.318;21.898;2022-12-18T08:17:06;25.0;;;20.0;;
21120;SDS011;12519;43.318;21.898;2022-12-18T08:21:42;25.0;;;20.0;;
21120;SDS011;12519;43.318;21.898;2022-12-18T08:26:19;27.0;;;21.0;;
21120;SDS011;12519;43.318;21.898;2022-12-18T08:30:56;27.0;;;21.0;;
21120;SDS011;12519;43.318;21.898;2022-12-18T08:35:35;28.0;;;22.0;;
21120;SDS011;12519;43.318;21.898;2022-12-18T08:40:12;28.0;;;22.0;;
21120;SDS011;12519;43.318;21.898;2022-12-18T08:44:48;30.0;;;22.0;;
21120;SDS011;12519;43.318;21.898;2022-12-18T08:49:25;30.0;;;22.0;;
21120;SDS011;12519;43.318;21.898;2022-12-18T08:54:02;31.0;;;24.0;;
21120;SDS011;12519;43.318;21.898;2022-12-18T08:58:42;31.0;;;24.0;;
21120;SDS011;12519;43.318;21.898;2022-12-18T09:03:20;32.0;;;25.0;;
21120;SDS011;12519;43.318;21.898;2022-12-18T09:07:56;32.0;;;25.0;;
21120;SDS011;12519;43.318;21.898;2022-12-18T09:12:33;32.0;;;23.0;;
21120;SDS011;12519;43.318;21.898;2022-12-18T09:17:09;32.0;;;23.0;;
21120;SDS011;12519;43.318;21.898;2022-12-18T09:21:46;32.0;;;23.0;;
21120;SDS011;12519;43.318;21.898;2022-12-18T09:26:25;31.0;;;21.0;;
21120;SDS011;12519;43.318;21.898;2022-12-18T09:31:07;31.0;;;21.0;;
21120;SDS011;12519;43.318;21.898;2022-12-18T09:35:47;30.0;;;21.0;;
21120;SDS011;12519;43.318;21.898;2022-12-18T09:40:35;30.0;;;21.0;;
21120;SDS011;12519;43.318;21.898;2022-12-18T09:45:19;28.0;;;21.0;;
21120;SDS011;12519;43.318;21.898;2022-12-18T09:50:03;28.0;;;21.0;;
21120;SDS011;12519;43.318;21.898;2022-12-18T09:54:56;26.0;;;21.0;;
21120;SDS011;12519;43.318;21.898;2022-12-18T09:59:38;26.0;;;21.0;;
21120;SDS011;12519;43.318;21.898;2022-12-18T10:04:16;25.0;;;21.0;;
21120;SDS011;12519;43.318;21.898;2022-12-18T10:09:02;25.0;;;21.0;;
21120;SDS011;12519;43.318;21.898;2022-12-18T10:14:06;24.0;;;20.0;;
21120;SDS011;12519;43.318;21.898;2022-12-18T10:19:23;24.0;;;20.0;;
21120;SDS011;12519;43.318;21.898;2022-12-18T10:24:29;23.0;;;19.0;;
21120;SDS011;12519;43.318;21.898;2022-12-18T10:29:19;23.0;;;19.0;;
21120;SDS011;12519;43.318;21.898;2022-12-18T10:33:56;24.0;;;21.0;;
21120;SDS011;12519;43.318;21.898;2022-12-18T10:38:33;24.0;;;21.0;;
21120;SDS011;12519;43.318;21.898;2022-12-18T10:43:14;26.0;;;23.0;;
21120;SDS011;12519;43.318;21.898;2022-12-18T10:47:51;26.0;;;23.0;;
21120;SDS011;12519;43.318;21.898;2022-12-18T10:52:27;25.0;;;22.0;;
21120;SDS011;12519;43.318;21.898;2022-12-18T10:57:39;25.0;;;22.0;;
21120;SDS011;12519;43.318;21.898;2022-12-18T11:02:34;24.0;;;21.0;;
21120;SDS011;12519;43.318;21.898;2022-12-18T11:07:11;24.0;;;21.0;;
21120;SDS011;12519;43.318;21.898;2022-12-18T11:11:49;24.0;;;21.0;;
21120;SDS011;12519;43.318;21.898;2022-12-18T11:16:27;34.0;;;25.0;;
21120;SDS011;12519;43.318;21.898;2022-12-18T11:21:09;34.0;;;25.0;;
21120;SDS011;12519;43.318;21.898;2022-12-18T11:25:58;45.0;;;29.0;;
21120;SDS011;12519;43.318;21.898;2022-12-18T11:30:38;45.0;;;29.0;;
21120;SDS011;12519;43.318;21.898;2022-12-18T11:35:23;37.0;;;25.0;;
21120;SDS011;12519;43.318;21.898;2022-12-18T11:40:24;37.0;;;25.0;;
21120;SDS011;12519;43.318;21.898;2022-12-18T11:45:28;29.0;;;21.0;;
21120;SDS011;12519;43.318;21.898;2022-12-18T11:50:21;29.0;;;21.0;;
21120;SDS011;12519;43.318;21.898;2022-12-18T11:55:13;26.0;;;20.0;;
21120;SDS011;12519;43.318;21.898;2022-12-18T12:00:25;26.0;;;20.0;;
21120;SDS011;12519;43.318;21.898;2022-12-18T12:05:26;24.0;;;20.0;;
21120;SDS011;12519;43.318;21.898;2022-12-18T12:10:46;24.0;;;20.0;;
21120;SDS011;12519;43.318;21.898;2022-12-18T12:16:02;26.0;;;21.0;;
21120;SDS011;12519;43.318;21.898;2022-12-18T12:21:08;26.0;;;21.0;;
21120;SDS011;12519;43.318;21.898;2022-12-18T12:26:06;27.0;;;22.0;;
21120;SDS011;12519;43.318;21.898;2022-12-18T12:31:00;27.0;;;22.0;;
21120;SDS011;12519;43.318;21.898;2022-12-18T12:36:12;28.0;;;21.0;;
21120;SDS011;12519;43.318;21.898;2022-12-18T12:41:12;28.0;;;21.0;;
21120;SDS011;12519;43.318;21.898;2022-12-18T12:46:03;28.0;;;20.0;;
21120;SDS011;12519;43.318;21.898;2022-12-18T12:50:46;28.0;;;20.0;;
21120;SDS011;12519;43.318;21.898;2022-12-18T12:55:29;29.0;;;22.0;;
21120;SDS011;12519;43.318;21.898;2022-12-18T13:00:15;29.0;;;22.0;;
21120;SDS011;12519;43.318;21.898;2022-12-18T13:05:05;30.0;;;23.0;;
21120;SDS011;12519;43.318;21.898;2022-12-18T13:10:28;30.0;;;23.0;;
21120;SDS011;12519;43.318;21.898;2022-12-18T13:15:22;30.0;;;22.0;;
21120;SDS011;12519;43.318;21.898;2022-12-18T13:20:20;30.0;;;22.0;;
21120;SDS011;12519;43.318;21.898;2022-12-18T13:24:56;29.0;;;22.0;;
21120;SDS011;12519;43.318;21.898;2022-12-18T13:29:47;29.0;;;22.0;;
21120;SDS011;12519;43.318;21.898;2022-12-18T13:34:27;28.0;;;21.0;;
21120;SDS011;12519;43.318;21.898;2022-12-18T13:39:31;28.0;;;21.0;;
21120;SDS011;12519;43.318;21.898;2022-12-18T13:44:24;26.0;;;20.0;;
21120;SDS011;12519;43.318;21.898;2022-12-18T13:49:25;26.0;;;20.0;;
21120;SDS011;12519;43.318;21.898;2022-12-18T13:54:25;26.0;;;20.0;;
21120;SDS011;12519;43.318;21.898;2022-12-18T13:59:17;26.0;;;20.0;;
21120;SDS011;12519;43.318;21.898;2022-12-18T14:04:11;25.0;;;19.0;;
21120;SDS011;12519;43.318;21.898;2022-12-18T14:08:55;25.0;;;19.0;;
21120;SDS011;12519;43.318;21.898;2022-12-18T14:13:40;22.0;;;18.0;;
21120;SDS011;12519;43.318;21.898;2022-12-18T14:18:23;22.0;;;18.0;;
21120;SDS011;12519;43.318;21.898;2022-12-18T14:23:29;19.0;;;17.0;;
21120;SDS011;12519;43.318;21.898;2022-12-18T14:28:14;19.0;;;17.0;;
21120;SDS011;12519;43.318;21.898;2022-12-18T14:33:04;25.0;;;20.0;;
21120;SDS011;12519;43.318;21.898;2022-12-18T14:37:49;25.0;;;20.0;;
21120;SDS011;12519;43.318;21.898;2022-12-18T14:42:27;25.0;;;20.0;;
21120;SDS011;12519;43.318;21.898;2022-12-18T14:47:04;31.0;;;24.0;;
21120;SDS011;12519;43.318;21.898;2022-12-18T14:51:50;31.0;;;24.0;;
21120;SDS011;12519;43.318;21.898;2022-12-18T14:56:34;26.0;;;22.0;;
21120;SDS011;12519;43.318;21.898;2022-12-18T15:01:25;26.0;;;22.0;;
21120;SDS011;12519;43.318;21.898;2022-12-18T15:06:31;21.0;;;19.0;;
21120;SDS011;12519;43.318;21.898;2022-12-18T15:11:29;21.0;;;19.0;;
21120;SDS011;12519;43.318;21.898;2022-12-18T15:16:12;24.0;;;20.0;;
21120;SDS011;12519;43.318;21.898;2022-12-18T15:20:52;24.0;;;20.0;;
21120;SDS011;12519;43.318;21.898;2022-12-18T15:25:36;27.0;;;21.0;;
21120;SDS011;12519;43.318;21.898;2022-12-18T15:30:22;27.0;;;21.0;;
21120;SDS011;12519;43.318;21.898;2022-12-18T15:35:14;28.0;;;21.0;;
21120;SDS011;12519;43.318;21.898;2022-12-18T15:39:55;28.0;;;21.0;;
21120;SDS011;12519;43.318;21.898;2022-12-18T15:44:32;28.0;;;21.0;;
21120;SDS011;12519;43.318;21.898;2022-12-18T15:49:08;28.0;;;21.0;;
21120;SDS011;12519;43.318;21.898;2022-12-18T15:53:47;29.0;;;20.0;;
21120;SDS011;12519;43.318;21.898;2022-12-18T15:58:25;29.0;;;20.0;;
21120;SDS011;12519;43.318;21.898;2022-12-18T16:03:02;30.0;;;20.0;;
21120;SDS011;12519;43.318;21.898;2022-12-18T16:07:38;30.0;;;20.0;;
21120;SDS011;12519;43.318;21.898;2022-12-18T16:12:19;30.0;;;20.0;;
21120;SDS011;12519;43.318;21.898;2022-12-18T16:17:01;26.0;;;20.0;;
21120;SDS011;12519;43.318;21.898;2022-12-18T16:21:39;26.0;;;20.0;;
21120;SDS011;12519;43.318;21.898;2022-12-18T16:26:15;22.0;;;21.0;;
21120;SDS011;12519;43.318;21.898;2022-12-18T16:30:51;22.0;;;21.0;;
21120;SDS011;12519;43.318;21.898;2022-12-18T16:35:27;24.0;;;20.0;;
21120;SDS011;12519;43.318;21.898;2022-12-18T16:40:05;24.0;;;20.0;;
21120;SDS011;12519;43.318;21.898;2022-12-18T16:44:48;25.0;;;20.0;;
21120;SDS011;12519;43.318;21.898;2022-12-18T16:49:25;25.0;;;20.0;;
21120;SDS011;12519;43.318;21.898;2022-12-18T16:54:01;31.0;;;24.0;;
21120;SDS011;12519;43.318;21.898;2022-12-18T16:58:38;31.0;;;24.0;;
21120;SDS011;12519;43.318;21.898;2022-12-18T17:03:14;37.0;;;28.0;;
21120;SDS011;12519;43.318;21.898;2022-12-18T17:07:50;37.0;;;28.0;;
21120;SDS011;12519;43.318;21.898;2022-12-18T17:12:26;37.0;;;28.0;;
21120;SDS011;12519;43.318;21.898;2022-12-18T17:17:03;29.0;;;24.0;;
21120;SDS011;12519;43.318;21.898;2022-12-18T17:21:40;29.0;;;24.0;;
21120;SDS011;12519;43.318;21.898;2022-12-18T17:26:17;21.0;;;20.0;;
21120;SDS011;12519;43.318;21.898;2022-12-18T17:30:55;21.0;;;20.0;;
21120;SDS011;12519;43.318;21.898;2022-12-18T17:35:31;20.0;;;18.0;;
21120;SDS011;12519;43.318;21.898;2022-12-18T17:40:09;20.0;;;18.0;;
21120;SDS011;12519;43.318;21.898;2022-12-18T17:44:46;20.0;;;17.0;;
21120;SDS011;12519;43.318;21.898;2022-12-18T17:49:22;20.0;;;17.0;;
21120;SDS011;12519;43.318;21.898;2022-12-18T17:53:59;24.0;;;18.0;;
21120;SDS011;12519;43.318;21.898;2022-12-18T17:58:36;24.0;;;18.0;;
21120;SDS011;12519;43.318;21.898;2022-12-18T18:03:13;28.0;;;20.0;;
21120;SDS011;12519;43.318;21.898;2022-12-18T18:07:49;28.0;;;20.0;;
21120;SDS011;12519;43.318;21.898;2022-12-18T18:12:26;28.0;;;20.0;;
21120;SDS011;12519;43.318;21.898;2022-12-18T18:17:02;24.0;;;20.0;;
21120;SDS011;12519;43.318;21.898;2022-12-18T18:21:41;24.0;;;20.0;;
21120;SDS011;12519;43.318;21.898;2022-12-18T18:26:21;21.0;;;19.0;;
21120;SDS011;12519;43.318;21.898;2022-12-18T18:30:59;21.0;;;19.0;;
21120;SDS011;12519;43.318;21.898;2022-12-18T18:35:41;25.0;;;22.0;;
21120;SDS011;12519;43.318;21.898;2022-12-18T18:40:18;25.0;;;22.0;;
21120;SDS011;12519;43.318;21.898;2022-12-18T18:44:54;29.0;;;24.0;;
21120;SDS011;12519;43.318;21.898;2022-12-18T18:49:30;29.0;;;24.0;;
21120;SDS011;12519;43.318;21.898;2022-12-18T18:54:06;32.0;;;24.0;;
21120;SDS011;12519;43.318;21.898;2022-12-18T18:58:43;32.0;;;24.0;;
21120;SDS011;12519;43.318;21.898;2022-12-18T19:03:19;34.0;;;23.0;;
21120;SDS011;12519;43.318;21.898;2022-12-18T19:07:55;34.0;;;23.0;;
21120;SDS011;12519;43.318;21.898;2022-12-18T19:12:33;34.0;;;23.0;;
21120;SDS011;12519;43.318;21.898;2022-12-18T19:17:09;32.0;;;22.0;;
21120;SDS011;12519;43.318;21.898;2022-12-18T19:21:46;32.0;;;22.0;;
21120;SDS011;12519;43.318;21.898;2022-12-18T19:26:24;29.0;;;22.0;;
21120;SDS011;12519;43.318;21.898;2022-12-18T19:31:05;29.0;;;22.0;;
21120;SDS011;12519;43.318;21.898;2022-12-18T19:35:45;27.0;;;22.0;;
21120;SDS011;12519;43.318;21.898;2022-12-18T19:40:22;27.0;;;22.0;;
21120;SDS011;12519;43.318;21.898;2022-12-18T19:44:58;25.0;;;22.0;;
21120;SDS011;12519;43.318;21.898;2022-12-18T19:49:34;25.0;;;22.0;;
21120;SDS011;12519;43.318;21.898;2022-12-18T19:54:10;24.0;;;22.0;;
21120;SDS011;12519;43.318;21.898;2022-12-18T19:58:46;24.0;;;22.0;;
21120;SDS011;12519;43.318;21.898;2022-12-18T20:03:23;24.0;;;21.0;;
21120;SDS011;12519;43.318;21.898;2022-12-18T20:07:59;24.0;;;21.0;;
21120;SDS011;12519;43.318;21.898;2022-12-18T20:12:35;24.0;;;21.0;;
21120;SDS011;12519;43.318;21.898;2022-12-18T20:17:12;26.0;;;22.0;;
21120;SDS011;12519;43.318;21.898;2022-12-18T20:21:48;26.0;;;22.0;;
21120;SDS011;12519;43.318;21.898;2022-12-18T20:26:25;27.0;;;22.0;;
21120;SDS011;12519;43.318;21.898;2022-12-18T20:31:04;27.0;;;22.0;;
21120;SDS011;12519;43.318;21.898;2022-12-18T20:35:41;31.0;;;25.0;;
21120;SDS011;12519;43.318;21.898;2022-12-18T20:40:18;31.0;;;25.0;;
21120;SDS011;12519;43.318;21.898;2022-12-18T20:44:54;35.0;;;28.0;;
21120;SDS011;12519;43.318;21.898;2022-12-18T20:49:30;35.0;;;28.0;;
21120;SDS011;12519;43.318;21.898;2022-12-18T20:54:06;48.0;;;35.0;;
21120;SDS011;12519;43.318;21.898;2022-12-18T20:58:43;48.0;;;35.0;;
21120;SDS011;12519;43.318;21.898;2022-12-18T21:03:19;48.0;;;35.0;;
21120;SDS011;12519;43.318;21.898;2022-12-18T21:07:56;62.0;;;42.0;;
21120;SDS011;12519;43.318;21.898;2022-12-18T21:12:32;62.0;;;42.0;;
21120;SDS011;12519;43.318;21.898;2022-12-18T21:17:08;46.0;;;32.0;;
21120;SDS011;12519;43.318;21.898;2022-12-18T21:21:45;46.0;;;32.0;;
21120;SDS011;12519;43.318;21.898;2022-12-18T21:26:23;30.0;;;23.0;;
21120;SDS011;12519;43.318;21.898;2022-12-18T21:31:02;30.0;;;23.0;;
21120;SDS011;12519;43.318;21.898;2022-12-18T21:35:38;25.0;;;21.0;;
21120;SDS011;12519;43.318;21.898;2022-12-18T21:40:14;25.0;;;21.0;;
21120;SDS011;12519;43.318;21.898;2022-12-18T21:44:50;20.0;;;19.0;;
21120;SDS011;12519;43.318;21.898;2022-12-18T21:49:26;20.0;;;19.0;;
21120;SDS011;12519;43.318;21.898;2022-12-18T21:54:02;24.0;;;21.0;;
21120;SDS011;12519;43.318;21.898;2022-12-18T21:58:39;24.0;;;21.0;;
21120;SDS011;12519;43.318;21.898;2022-12-18T22:03:15;24.0;;;21.0;;
21120;SDS011;12519;43.318;21.898;2022-12-18T22:07:52;29.0;;;23.0;;
21120;SDS011;12519;43.318;21.898;2022-12-18T22:12:28;29.0;;;23.0;;
21120;SDS011;12519;43.318;21.898;2022-12-18T22:17:04;28.0;;;22.0;;
21120;SDS011;12519;43.318;21.898;2022-12-18T22:21:42;28.0;;;22.0;;
21120;SDS011;12519;43.318;21.898;2022-12-18T22:26:24;27.0;;;21.0;;
21120;SDS011;12519;43.318;21.898;2022-12-18T22:31:06;27.0;;;21.0;;
21120;SDS011;12519;43.318;21.898;2022-12-18T22:35:43;26.0;;;21.0;;
21120;SDS011;12519;43.318;21.898;2022-12-18T22:40:21;26.0;;;21.0;;
21120;SDS011;12519;43.318;21.898;2022-12-18T22:44:58;26.0;;;21.0;;
21120;SDS011;12519;43.318;21.898;2022-12-18T22:49:35;26.0;;;21.0;;
21120;SDS011;12519;43.318;21.898;2022-12-18T22:54:12;26.0;;;20.0;;
21120;SDS011;12519;43.318;21.898;2022-12-18T22:58:50;26.0;;;20.0;;
21120;SDS011;12519;43.318;21.898;2022-12-18T23:03:27;26.0;;;20.0;;
21120;SDS011;12519;43.318;21.898;2022-12-18T23:08:03;25.0;;;19.0;;
21120;SDS011;12519;43.318;21.898;2022-12-18T23:12:39;25.0;;;19.0;;
21120;SDS011;12519;43.318;21.898;2022-12-18T23:17:15;25.0;;;19.0;;
21120;SDS011;12519;43.318;21.898;2022-12-18T23:21:51;25.0;;;19.0;;
21120;SDS011;12519;43.318;21.898;2022-12-18T23:26:28;25.0;;;19.0;;
21120;SDS011;12519;43.318;21.898;2022-12-18T23:31:06;25.0;;;19.0;;
21120;SDS011;12519;43.318;21.898;2022-12-18T23:35:49;28.0;;;23.0;;
21120;SDS011;12519;43.318;21.898;2022-12-18T23:40:26;28.0;;;23.0;;
21120;SDS011;12519;43.318;21.898;2022-12-18T23:45:05;30.0;;;27.0;;
21120;SDS011;12519;43.318;21.898;2022-12-18T23:49:44;30.0;;;27.0;;
21120;SDS011;12519;43.318;21.898;2022-12-18T23:54:20;30.0;;;24.0;;
21120;SDS011;12519;43.318;21.898;2022-12-18T23:58:56;30.0;;;24.0;;
